sensor_id;sensor_type;location;lat;lon;timestamp;P1;durP1;ratioP1;P2;durP2;ratioP2
39176;SDS011;24904;52.208;21.192;2022-09-29T00:01:38;22.10;;;11.50;;
39176;SDS011;24904;52.208;21.192;2022-09-29T00:06:41;25.70;;;12.00;;
39176;SDS011;24904;52.208;21.192;2022-09-29T00:11:44;20.60;;;11.40;;
39176;SDS011;24904;52.208;21.192;2022-09-29T00:16:48;20.00;;;12.80;;
39176;SDS011;24904;52.208;21.192;2022-09-29T00:21:51;18.90;;;12.10;;
39176;SDS011;24904;52.208;21.192;2022-09-29T00:26:54;17.10;;;11.20;;
39176;SDS011;24904;52.208;21.192;2022-09-29T00:31:57;15.60;;;10.00;;
39176;SDS011;24904;52.208;21.192;2022-09-29T00:37:01;16.00;;;9.70;;
39176;SDS011;24904;52.208;21.192;2022-09-29T00:42:04;14.10;;;9.20;;
39176;SDS011;24904;52.208;21.192;2022-09-29T00:47:08;12.30;;;8.00;;
39176;SDS011;24904;52.208;21.192;2022-09-29T00:52:17;11.40;;;7.40;;
39176;SDS011;24904;52.208;21.192;2022-09-29T00:57:26;11.30;;;7.60;;
39176;SDS011;24904;52.208;21.192;2022-09-29T01:02:32;15.10;;;8.00;;
39176;SDS011;24904;52.208;21.192;2022-09-29T01:07:40;12.30;;;7.50;;
39176;SDS011;24904;52.208;21.192;2022-09-29T01:12:46;11.80;;;8.50;;
39176;SDS011;24904;52.208;21.192;2022-09-29T01:17:50;10.40;;;8.30;;
39176;SDS011;24904;52.208;21.192;2022-09-29T01:28:35;10.90;;;7.90;;
39176;SDS011;24904;52.208;21.192;2022-09-29T01:33:55;11.00;;;8.00;;
39176;SDS011;24904;52.208;21.192;2022-09-29T01:39:09;13.70;;;7.80;;
39176;SDS011;24904;52.208;21.192;2022-09-29T01:44:22;9.40;;;7.40;;
39176;SDS011;24904;52.208;21.192;2022-09-29T01:49:30;10.50;;;7.40;;
39176;SDS011;24904;52.208;21.192;2022-09-29T01:54:40;10.50;;;7.60;;
39176;SDS011;24904;52.208;21.192;2022-09-29T01:59:49;13.80;;;7.90;;
39176;SDS011;24904;52.208;21.192;2022-09-29T02:04:58;12.00;;;8.00;;
39176;SDS011;24904;52.208;21.192;2022-09-29T02:10:08;12.90;;;7.60;;
39176;SDS011;24904;52.208;21.192;2022-09-29T02:15:17;10.70;;;7.60;;
39176;SDS011;24904;52.208;21.192;2022-09-29T02:20:23;11.80;;;8.30;;
39176;SDS011;24904;52.208;21.192;2022-09-29T02:25:26;10.80;;;7.80;;
39176;SDS011;24904;52.208;21.192;2022-09-29T02:30:29;10.10;;;7.00;;
39176;SDS011;24904;52.208;21.192;2022-09-29T02:35:34;10.10;;;7.10;;
39176;SDS011;24904;52.208;21.192;2022-09-29T02:40:47;14.30;;;7.90;;
39176;SDS011;24904;52.208;21.192;2022-09-29T02:46:06;10.70;;;8.00;;
39176;SDS011;24904;52.208;21.192;2022-09-29T02:51:22;14.80;;;8.30;;
39176;SDS011;24904;52.208;21.192;2022-09-29T02:56:32;16.10;;;10.70;;
39176;SDS011;24904;52.208;21.192;2022-09-29T03:01:46;11.40;;;7.60;;
39176;SDS011;24904;52.208;21.192;2022-09-29T03:06:51;14.20;;;8.60;;
39176;SDS011;24904;52.208;21.192;2022-09-29T03:11:55;11.30;;;8.20;;
39176;SDS011;24904;52.208;21.192;2022-09-29T03:16:58;12.80;;;9.00;;
39176;SDS011;24904;52.208;21.192;2022-09-29T03:22:02;12.20;;;8.60;;
39176;SDS011;24904;52.208;21.192;2022-09-29T03:27:05;11.80;;;8.30;;
39176;SDS011;24904;52.208;21.192;2022-09-29T03:32:10;10.60;;;7.90;;
39176;SDS011;24904;52.208;21.192;2022-09-29T03:37:13;14.50;;;8.70;;
39176;SDS011;24904;52.208;21.192;2022-09-29T03:42:16;13.10;;;8.50;;
39176;SDS011;24904;52.208;21.192;2022-09-29T03:47:23;11.40;;;8.80;;
39176;SDS011;24904;52.208;21.192;2022-09-29T03:52:26;14.70;;;8.80;;
39176;SDS011;24904;52.208;21.192;2022-09-29T03:57:30;10.80;;;8.90;;
39176;SDS011;24904;52.208;21.192;2022-09-29T04:02:33;16.00;;;9.80;;
39176;SDS011;24904;52.208;21.192;2022-09-29T04:07:36;10.20;;;8.10;;
39176;SDS011;24904;52.208;21.192;2022-09-29T04:12:39;18.30;;;8.90;;
39176;SDS011;24904;52.208;21.192;2022-09-29T04:17:42;11.40;;;9.20;;
39176;SDS011;24904;52.208;21.192;2022-09-29T04:22:46;11.60;;;8.50;;
39176;SDS011;24904;52.208;21.192;2022-09-29T04:27:49;11.50;;;8.90;;
39176;SDS011;24904;52.208;21.192;2022-09-29T04:32:52;13.00;;;9.10;;
39176;SDS011;24904;52.208;21.192;2022-09-29T04:37:56;14.20;;;10.60;;
39176;SDS011;24904;52.208;21.192;2022-09-29T04:42:59;12.60;;;9.60;;
39176;SDS011;24904;52.208;21.192;2022-09-29T04:48:02;14.30;;;9.60;;
39176;SDS011;24904;52.208;21.192;2022-09-29T04:53:06;14.30;;;10.00;;
39176;SDS011;24904;52.208;21.192;2022-09-29T04:58:10;15.30;;;10.50;;
39176;SDS011;24904;52.208;21.192;2022-09-29T05:03:14;11.50;;;10.10;;
39176;SDS011;24904;52.208;21.192;2022-09-29T05:08:18;13.00;;;10.30;;
39176;SDS011;24904;52.208;21.192;2022-09-29T05:13:21;14.00;;;10.00;;
39176;SDS011;24904;52.208;21.192;2022-09-29T05:18:25;14.90;;;10.60;;
39176;SDS011;24904;52.208;21.192;2022-09-29T05:23:29;14.20;;;11.00;;
39176;SDS011;24904;52.208;21.192;2022-09-29T05:28:32;13.60;;;10.70;;
39176;SDS011;24904;52.208;21.192;2022-09-29T05:33:35;16.60;;;11.40;;
39176;SDS011;24904;52.208;21.192;2022-09-29T05:38:39;16.20;;;11.10;;
39176;SDS011;24904;52.208;21.192;2022-09-29T05:43:42;14.60;;;11.50;;
39176;SDS011;24904;52.208;21.192;2022-09-29T05:48:45;17.70;;;12.20;;
39176;SDS011;24904;52.208;21.192;2022-09-29T05:53:48;15.80;;;11.30;;
39176;SDS011;24904;52.208;21.192;2022-09-29T05:58:52;15.00;;;11.20;;
39176;SDS011;24904;52.208;21.192;2022-09-29T06:03:56;17.20;;;11.50;;
39176;SDS011;24904;52.208;21.192;2022-09-29T06:08:59;17.00;;;12.10;;
39176;SDS011;24904;52.208;21.192;2022-09-29T06:14:02;15.50;;;11.90;;
39176;SDS011;24904;52.208;21.192;2022-09-29T06:19:05;17.50;;;11.80;;
39176;SDS011;24904;52.208;21.192;2022-09-29T06:24:09;16.60;;;12.30;;
39176;SDS011;24904;52.208;21.192;2022-09-29T06:29:12;16.30;;;11.70;;
39176;SDS011;24904;52.208;21.192;2022-09-29T06:34:16;15.90;;;12.10;;
39176;SDS011;24904;52.208;21.192;2022-09-29T06:39:19;18.50;;;11.80;;
39176;SDS011;24904;52.208;21.192;2022-09-29T06:44:23;18.30;;;12.00;;
39176;SDS011;24904;52.208;21.192;2022-09-29T06:49:27;15.80;;;12.40;;
39176;SDS011;24904;52.208;21.192;2022-09-29T06:54:31;16.30;;;13.20;;
39176;SDS011;24904;52.208;21.192;2022-09-29T06:59:34;15.80;;;12.50;;
39176;SDS011;24904;52.208;21.192;2022-09-29T07:04:37;17.60;;;13.30;;
39176;SDS011;24904;52.208;21.192;2022-09-29T07:09:40;16.60;;;12.70;;
39176;SDS011;24904;52.208;21.192;2022-09-29T07:14:43;19.50;;;13.10;;
39176;SDS011;24904;52.208;21.192;2022-09-29T07:19:46;17.10;;;11.30;;
39176;SDS011;24904;52.208;21.192;2022-09-29T07:24:50;17.90;;;12.80;;
39176;SDS011;24904;52.208;21.192;2022-09-29T07:29:55;16.70;;;11.80;;
39176;SDS011;24904;52.208;21.192;2022-09-29T07:34:58;20.00;;;12.50;;
39176;SDS011;24904;52.208;21.192;2022-09-29T07:40:01;17.00;;;11.80;;
39176;SDS011;24904;52.208;21.192;2022-09-29T07:45:06;16.40;;;12.00;;
39176;SDS011;24904;52.208;21.192;2022-09-29T07:50:10;13.60;;;11.10;;
39176;SDS011;24904;52.208;21.192;2022-09-29T07:55:14;14.40;;;11.70;;
39176;SDS011;24904;52.208;21.192;2022-09-29T08:00:17;14.00;;;10.70;;
39176;SDS011;24904;52.208;21.192;2022-09-29T08:05:20;13.90;;;11.00;;
39176;SDS011;24904;52.208;21.192;2022-09-29T08:10:23;12.10;;;10.10;;
39176;SDS011;24904;52.208;21.192;2022-09-29T08:15:27;12.80;;;9.70;;
39176;SDS011;24904;52.208;21.192;2022-09-29T08:20:30;12.40;;;9.50;;
39176;SDS011;24904;52.208;21.192;2022-09-29T08:25:35;10.70;;;8.90;;
39176;SDS011;24904;52.208;21.192;2022-09-29T08:30:39;11.90;;;9.50;;
39176;SDS011;24904;52.208;21.192;2022-09-29T08:35:42;16.00;;;11.50;;
39176;SDS011;24904;52.208;21.192;2022-09-29T08:40:45;14.80;;;11.20;;
39176;SDS011;24904;52.208;21.192;2022-09-29T08:45:49;18.50;;;12.10;;
39176;SDS011;24904;52.208;21.192;2022-09-29T08:51:00;16.00;;;11.30;;
39176;SDS011;24904;52.208;21.192;2022-09-29T08:56:07;13.70;;;11.70;;
39176;SDS011;24904;52.208;21.192;2022-09-29T09:01:18;19.60;;;10.90;;
39176;SDS011;24904;52.208;21.192;2022-09-29T09:06:33;13.00;;;10.40;;
39176;SDS011;24904;52.208;21.192;2022-09-29T09:11:49;14.30;;;9.90;;
39176;SDS011;24904;52.208;21.192;2022-09-29T09:17:00;12.00;;;9.10;;
39176;SDS011;24904;52.208;21.192;2022-09-29T09:22:17;10.90;;;9.60;;
39176;SDS011;24904;52.208;21.192;2022-09-29T09:27:25;12.80;;;9.60;;
39176;SDS011;24904;52.208;21.192;2022-09-29T09:32:34;11.60;;;8.90;;
39176;SDS011;24904;52.208;21.192;2022-09-29T09:37:43;10.80;;;9.00;;
39176;SDS011;24904;52.208;21.192;2022-09-29T09:42:49;11.70;;;8.90;;
39176;SDS011;24904;52.208;21.192;2022-09-29T09:48:00;10.80;;;9.00;;
39176;SDS011;24904;52.208;21.192;2022-09-29T09:53:14;11.30;;;9.50;;
39176;SDS011;24904;52.208;21.192;2022-09-29T09:58:33;13.90;;;9.70;;
39176;SDS011;24904;52.208;21.192;2022-09-29T10:03:55;11.00;;;8.60;;
39176;SDS011;24904;52.208;21.192;2022-09-29T10:09:01;12.90;;;9.00;;
39176;SDS011;24904;52.208;21.192;2022-09-29T10:14:08;11.40;;;8.70;;
39176;SDS011;24904;52.208;21.192;2022-09-29T10:19:16;11.00;;;9.10;;
39176;SDS011;24904;52.208;21.192;2022-09-29T10:24:26;11.00;;;9.00;;
39176;SDS011;24904;52.208;21.192;2022-09-29T10:29:32;12.40;;;9.20;;
39176;SDS011;24904;52.208;21.192;2022-09-29T10:34:40;9.90;;;8.10;;
39176;SDS011;24904;52.208;21.192;2022-09-29T10:39:45;7.90;;;6.50;;
39176;SDS011;24904;52.208;21.192;2022-09-29T10:44:50;11.30;;;7.50;;
39176;SDS011;24904;52.208;21.192;2022-09-29T10:50:10;9.50;;;7.40;;
39176;SDS011;24904;52.208;21.192;2022-09-29T10:55:17;8.00;;;7.00;;
39176;SDS011;24904;52.208;21.192;2022-09-29T11:00:27;8.60;;;6.80;;
39176;SDS011;24904;52.208;21.192;2022-09-29T11:05:33;8.60;;;7.00;;
39176;SDS011;24904;52.208;21.192;2022-09-29T11:10:38;8.20;;;6.80;;
39176;SDS011;24904;52.208;21.192;2022-09-29T11:15:42;10.20;;;7.40;;
39176;SDS011;24904;52.208;21.192;2022-09-29T11:20:45;8.60;;;6.90;;
39176;SDS011;24904;52.208;21.192;2022-09-29T11:26:10;13.00;;;7.70;;
39176;SDS011;24904;52.208;21.192;2022-09-29T11:31:31;10.60;;;8.70;;
39176;SDS011;24904;52.208;21.192;2022-09-29T11:36:47;9.90;;;8.30;;
39176;SDS011;24904;52.208;21.192;2022-09-29T11:42:00;8.40;;;7.10;;
39176;SDS011;24904;52.208;21.192;2022-09-29T11:47:19;10.20;;;7.10;;
39176;SDS011;24904;52.208;21.192;2022-09-29T11:52:40;9.30;;;6.10;;
39176;SDS011;24904;52.208;21.192;2022-09-29T11:58:00;9.30;;;6.70;;
39176;SDS011;24904;52.208;21.192;2022-09-29T12:03:24;9.80;;;7.50;;
39176;SDS011;24904;52.208;21.192;2022-09-29T12:08:36;10.40;;;7.20;;
39176;SDS011;24904;52.208;21.192;2022-09-29T12:13:52;8.80;;;7.80;;
39176;SDS011;24904;52.208;21.192;2022-09-29T12:19:03;9.10;;;7.70;;
39176;SDS011;24904;52.208;21.192;2022-09-29T12:24:13;10.00;;;8.20;;
39176;SDS011;24904;52.208;21.192;2022-09-29T12:29:25;15.70;;;8.80;;
39176;SDS011;24904;52.208;21.192;2022-09-29T12:34:35;11.70;;;8.90;;
39176;SDS011;24904;52.208;21.192;2022-09-29T12:39:49;14.50;;;9.30;;
39176;SDS011;24904;52.208;21.192;2022-09-29T12:45:01;9.90;;;8.20;;
39176;SDS011;24904;52.208;21.192;2022-09-29T12:50:14;14.40;;;9.10;;
39176;SDS011;24904;52.208;21.192;2022-09-29T12:55:25;9.60;;;7.60;;
39176;SDS011;24904;52.208;21.192;2022-09-29T13:00:33;12.70;;;9.00;;
39176;SDS011;24904;52.208;21.192;2022-09-29T13:05:44;11.80;;;9.50;;
39176;SDS011;24904;52.208;21.192;2022-09-29T13:28:10;13.70;;;8.60;;
39176;SDS011;24904;52.208;21.192;2022-09-29T13:33:23;8.60;;;7.70;;
39176;SDS011;24904;52.208;21.192;2022-09-29T13:38:27;14.10;;;10.00;;
39176;SDS011;24904;52.208;21.192;2022-09-29T13:43:37;15.20;;;9.60;;
39176;SDS011;24904;52.208;21.192;2022-09-29T13:48:49;11.20;;;8.70;;
39176;SDS011;24904;52.208;21.192;2022-09-29T13:59:26;9.90;;;8.80;;
39176;SDS011;24904;52.208;21.192;2022-09-29T14:04:34;12.00;;;7.80;;
39176;SDS011;24904;52.208;21.192;2022-09-29T14:09:46;12.40;;;10.40;;
39176;SDS011;24904;52.208;21.192;2022-09-29T14:14:51;12.00;;;8.90;;
39176;SDS011;24904;52.208;21.192;2022-09-29T14:20:00;10.30;;;8.60;;
39176;SDS011;24904;52.208;21.192;2022-09-29T14:25:26;10.90;;;8.90;;
39176;SDS011;24904;52.208;21.192;2022-09-29T14:30:48;10.90;;;9.20;;
39176;SDS011;24904;52.208;21.192;2022-09-29T14:35:59;14.60;;;8.70;;
39176;SDS011;24904;52.208;21.192;2022-09-29T14:41:17;11.60;;;9.90;;
39176;SDS011;24904;52.208;21.192;2022-09-29T14:46:34;12.90;;;9.60;;
39176;SDS011;24904;52.208;21.192;2022-09-29T14:52:15;13.60;;;10.00;;
39176;SDS011;24904;52.208;21.192;2022-09-29T14:57:30;11.00;;;8.90;;
39176;SDS011;24904;52.208;21.192;2022-09-29T15:03:04;11.00;;;9.70;;
39176;SDS011;24904;52.208;21.192;2022-09-29T15:08:19;9.90;;;8.70;;
39176;SDS011;24904;52.208;21.192;2022-09-29T15:13:29;12.20;;;9.40;;
39176;SDS011;24904;52.208;21.192;2022-09-29T15:18:36;13.50;;;8.70;;
39176;SDS011;24904;52.208;21.192;2022-09-29T15:24:01;13.20;;;9.60;;
39176;SDS011;24904;52.208;21.192;2022-09-29T15:29:16;10.70;;;8.20;;
39176;SDS011;24904;52.208;21.192;2022-09-29T15:34:21;12.70;;;8.90;;
39176;SDS011;24904;52.208;21.192;2022-09-29T15:39:40;10.70;;;9.50;;
39176;SDS011;24904;52.208;21.192;2022-09-29T15:44:51;12.30;;;9.70;;
39176;SDS011;24904;52.208;21.192;2022-09-29T15:49:59;13.50;;;10.10;;
39176;SDS011;24904;52.208;21.192;2022-09-29T15:55:14;9.70;;;8.70;;
39176;SDS011;24904;52.208;21.192;2022-09-29T16:06:01;10.70;;;9.00;;
39176;SDS011;24904;52.208;21.192;2022-09-29T16:11:07;12.20;;;8.60;;
39176;SDS011;24904;52.208;21.192;2022-09-29T16:16:28;14.80;;;9.20;;
39176;SDS011;24904;52.208;21.192;2022-09-29T16:21:36;12.20;;;9.30;;
39176;SDS011;24904;52.208;21.192;2022-09-29T16:26:40;10.60;;;9.00;;
39176;SDS011;24904;52.208;21.192;2022-09-29T16:31:46;16.50;;;9.10;;
39176;SDS011;24904;52.208;21.192;2022-09-29T16:36:50;16.10;;;8.40;;
39176;SDS011;24904;52.208;21.192;2022-09-29T16:41:55;12.80;;;8.30;;
39176;SDS011;24904;52.208;21.192;2022-09-29T16:47:01;13.80;;;9.40;;
39176;SDS011;24904;52.208;21.192;2022-09-29T16:52:13;10.70;;;9.10;;
39176;SDS011;24904;52.208;21.192;2022-09-29T16:57:23;10.30;;;8.40;;
39176;SDS011;24904;52.208;21.192;2022-09-29T17:02:27;15.90;;;10.00;;
39176;SDS011;24904;52.208;21.192;2022-09-29T17:07:30;13.40;;;9.70;;
39176;SDS011;24904;52.208;21.192;2022-09-29T17:12:39;14.40;;;10.00;;
39176;SDS011;24904;52.208;21.192;2022-09-29T17:17:42;15.70;;;10.80;;
39176;SDS011;24904;52.208;21.192;2022-09-29T17:22:47;14.80;;;8.80;;
39176;SDS011;24904;52.208;21.192;2022-09-29T17:27:51;12.00;;;8.70;;
39176;SDS011;24904;52.208;21.192;2022-09-29T17:33:21;13.50;;;9.30;;
39176;SDS011;24904;52.208;21.192;2022-09-29T17:38:24;18.90;;;11.70;;
39176;SDS011;24904;52.208;21.192;2022-09-29T17:43:28;17.90;;;13.40;;
39176;SDS011;24904;52.208;21.192;2022-09-29T17:48:32;27.90;;;16.10;;
39176;SDS011;24904;52.208;21.192;2022-09-29T17:53:36;26.60;;;15.90;;
39176;SDS011;24904;52.208;21.192;2022-09-29T17:58:39;25.90;;;18.20;;
39176;SDS011;24904;52.208;21.192;2022-09-29T18:03:42;26.80;;;16.90;;
39176;SDS011;24904;52.208;21.192;2022-09-29T18:08:46;26.70;;;19.10;;
39176;SDS011;24904;52.208;21.192;2022-09-29T18:13:51;32.90;;;20.70;;
39176;SDS011;24904;52.208;21.192;2022-09-29T18:18:54;26.60;;;19.80;;
39176;SDS011;24904;52.208;21.192;2022-09-29T18:23:58;32.50;;;22.70;;
39176;SDS011;24904;52.208;21.192;2022-09-29T18:29:07;27.70;;;19.70;;
39176;SDS011;24904;52.208;21.192;2022-09-29T18:34:15;26.80;;;20.30;;
39176;SDS011;24904;52.208;21.192;2022-09-29T18:39:21;26.30;;;19.70;;
39176;SDS011;24904;52.208;21.192;2022-09-29T18:44:24;21.80;;;18.10;;
39176;SDS011;24904;52.208;21.192;2022-09-29T18:49:33;17.10;;;13.80;;
39176;SDS011;24904;52.208;21.192;2022-09-29T18:54:37;23.00;;;17.40;;
39176;SDS011;24904;52.208;21.192;2022-09-29T18:59:42;26.10;;;19.20;;
39176;SDS011;24904;52.208;21.192;2022-09-29T19:04:46;28.50;;;20.20;;
39176;SDS011;24904;52.208;21.192;2022-09-29T19:09:50;36.10;;;21.10;;
39176;SDS011;24904;52.208;21.192;2022-09-29T19:14:53;25.60;;;19.80;;
39176;SDS011;24904;52.208;21.192;2022-09-29T19:20:00;27.60;;;19.20;;
39176;SDS011;24904;52.208;21.192;2022-09-29T19:25:05;27.00;;;19.60;;
39176;SDS011;24904;52.208;21.192;2022-09-29T19:30:10;32.20;;;22.20;;
39176;SDS011;24904;52.208;21.192;2022-09-29T19:35:16;31.40;;;22.20;;
39176;SDS011;24904;52.208;21.192;2022-09-29T19:40:22;30.30;;;22.40;;
39176;SDS011;24904;52.208;21.192;2022-09-29T19:45:27;47.40;;;29.00;;
39176;SDS011;24904;52.208;21.192;2022-09-29T19:50:30;33.10;;;23.20;;
39176;SDS011;24904;52.208;21.192;2022-09-29T19:55:52;35.00;;;23.70;;
39176;SDS011;24904;52.208;21.192;2022-09-29T20:00:56;39.70;;;26.30;;
39176;SDS011;24904;52.208;21.192;2022-09-29T20:06:00;38.10;;;26.00;;
39176;SDS011;24904;52.208;21.192;2022-09-29T20:11:07;37.60;;;26.60;;
39176;SDS011;24904;52.208;21.192;2022-09-29T20:16:12;31.70;;;22.80;;
39176;SDS011;24904;52.208;21.192;2022-09-29T20:21:15;37.90;;;23.80;;
39176;SDS011;24904;52.208;21.192;2022-09-29T20:26:19;39.00;;;24.90;;
39176;SDS011;24904;52.208;21.192;2022-09-29T20:31:25;45.10;;;26.70;;
39176;SDS011;24904;52.208;21.192;2022-09-29T20:36:30;46.50;;;27.90;;
39176;SDS011;24904;52.208;21.192;2022-09-29T20:41:34;50.00;;;28.40;;
39176;SDS011;24904;52.208;21.192;2022-09-29T20:46:37;48.40;;;28.70;;
39176;SDS011;24904;52.208;21.192;2022-09-29T20:51:41;51.70;;;29.00;;
39176;SDS011;24904;52.208;21.192;2022-09-29T20:56:45;47.60;;;26.70;;
39176;SDS011;24904;52.208;21.192;2022-09-29T21:01:51;41.70;;;24.80;;
39176;SDS011;24904;52.208;21.192;2022-09-29T21:06:56;38.70;;;23.80;;
39176;SDS011;24904;52.208;21.192;2022-09-29T21:12:01;41.00;;;25.60;;
39176;SDS011;24904;52.208;21.192;2022-09-29T21:17:05;53.80;;;29.90;;
39176;SDS011;24904;52.208;21.192;2022-09-29T21:22:11;42.30;;;26.60;;
39176;SDS011;24904;52.208;21.192;2022-09-29T21:27:16;40.70;;;24.80;;
39176;SDS011;24904;52.208;21.192;2022-09-29T21:32:21;37.20;;;23.40;;
39176;SDS011;24904;52.208;21.192;2022-09-29T21:37:26;46.30;;;26.90;;
39176;SDS011;24904;52.208;21.192;2022-09-29T21:42:32;43.90;;;27.00;;
39176;SDS011;24904;52.208;21.192;2022-09-29T21:47:37;40.10;;;26.40;;
39176;SDS011;24904;52.208;21.192;2022-09-29T21:53:01;39.20;;;25.40;;
39176;SDS011;24904;52.208;21.192;2022-09-29T21:58:07;41.60;;;25.80;;
39176;SDS011;24904;52.208;21.192;2022-09-29T22:03:12;41.90;;;26.50;;
39176;SDS011;24904;52.208;21.192;2022-09-29T22:08:20;56.80;;;32.70;;
39176;SDS011;24904;52.208;21.192;2022-09-29T22:13:26;103.90;;;51.30;;
39176;SDS011;24904;52.208;21.192;2022-09-29T22:18:32;76.60;;;44.00;;
39176;SDS011;24904;52.208;21.192;2022-09-29T22:23:39;53.20;;;31.80;;
39176;SDS011;24904;52.208;21.192;2022-09-29T22:28:45;54.30;;;32.10;;
39176;SDS011;24904;52.208;21.192;2022-09-29T22:33:53;43.80;;;26.60;;
39176;SDS011;24904;52.208;21.192;2022-09-29T22:39:02;47.60;;;28.10;;
39176;SDS011;24904;52.208;21.192;2022-09-29T22:44:09;47.30;;;27.60;;
39176;SDS011;24904;52.208;21.192;2022-09-29T22:49:16;46.50;;;27.70;;
39176;SDS011;24904;52.208;21.192;2022-09-29T22:54:24;44.90;;;25.70;;
39176;SDS011;24904;52.208;21.192;2022-09-29T22:59:32;41.40;;;24.70;;
39176;SDS011;24904;52.208;21.192;2022-09-29T23:04:46;43.00;;;26.40;;
39176;SDS011;24904;52.208;21.192;2022-09-29T23:09:53;42.20;;;25.00;;
39176;SDS011;24904;52.208;21.192;2022-09-29T23:15:02;42.10;;;25.90;;
39176;SDS011;24904;52.208;21.192;2022-09-29T23:20:12;45.90;;;27.10;;
39176;SDS011;24904;52.208;21.192;2022-09-29T23:25:19;46.90;;;28.60;;
39176;SDS011;24904;52.208;21.192;2022-09-29T23:30:27;53.10;;;32.10;;
39176;SDS011;24904;52.208;21.192;2022-09-29T23:35:35;49.30;;;30.30;;
39176;SDS011;24904;52.208;21.192;2022-09-29T23:40:43;49.90;;;29.90;;
39176;SDS011;24904;52.208;21.192;2022-09-29T23:45:49;46.90;;;27.80;;
39176;SDS011;24904;52.208;21.192;2022-09-29T23:50:57;46.10;;;26.00;;
39176;SDS011;24904;52.208;21.192;2022-09-29T23:56:05;44.40;;;25.30;;
